Latest METARs, TAFs and NOTAMs for MMSD


---------------------------------------------------------------------------
	(OBSERVATIONS)
MMSD 101441Z 27012KT 10SM  FEW200 19/12 A3003  RMK SLP158 52013
    970 8/001=
MMSD 101340Z 27010KT 10SM  SKC 18/13 A3001=
---------------------------------------------------------------------------
	(TERMINAL AREA FORECAST)
MMSD 100532Z 1006/1106 26005KT P6SM SKC
    FM101800 34010KT P6SM SKC
    FM110300 33005KT P6SM SKC=
---------------------------------------------------------------------------
	(NOTAMS)


MMSD A5510/18 ABN U/S. 19 SEP 01:30 2018 UNTIL 19 DEC 22:00 2018.
    CREATED: 19 SEP 01:20 2018

MMSD A6674/18 IN OPR SMC FREQ 134.1 MHZ. 01 NOV 14:00 2018 UNTIL
    PERM. CREATED: 01 NOV 02:29 2018

MMSD A7516/18 APP ADDN OPR AT FREQ 128.7 MHZ. 1800/2300 DAYS
    6, 7, 8, 9, 13, 14, 15, 16, AND 20 TO 31 DIC, 06 DEC 18:00
    2018 UNTIL 31 DEC 23:00 2018. CREATED: 03 DEC 07:55 2018

MMSD A7518/18 DELIVERY SER AUTH OPR AT FREQ 135.2 MHZ. 1800/2300
    DAYS 6 TO 9, 13 TO 16 AND 20 TO 31 DIC, 06 DEC 18:00 2018
    UNTIL 31 DEC 23:00 2018. CREATED: 03 DEC 08:06 2018

---------------------------------------------------------------------------